createdAt,value
2023-03-23T15:57:56.140Z,17.30
2023-03-23T16:00:27.236Z,17.20
2023-03-23T16:02:59.630Z,17.10
2023-03-23T16:05:29.744Z,17.00
2023-03-23T16:07:59.316Z,16.90
2023-03-23T16:10:31.109Z,16.90
2023-03-23T16:13:00.390Z,16.90
2023-03-23T16:15:30.479Z,16.80
2023-03-23T16:18:00.316Z,16.80
2023-03-23T16:20:32.665Z,16.80
2023-03-23T16:23:02.482Z,16.80
2023-03-23T16:25:33.356Z,16.80
2023-03-23T16:28:02.753Z,16.60
2023-03-23T16:30:35.091Z,16.60
2023-03-23T16:33:04.455Z,16.40
2023-03-23T16:35:33.481Z,16.30
2023-03-23T16:38:07.772Z,16.20
2023-03-23T16:40:41.018Z,16.20
2023-03-23T16:43:10.304Z,16.10
2023-03-23T16:45:42.425Z,16.00
2023-03-23T16:48:14.323Z,15.90
2023-03-23T16:50:45.193Z,15.80
2023-03-23T16:53:14.794Z,15.70
2023-03-23T16:55:48.887Z,15.70
2023-03-23T16:58:19.623Z,15.60
2023-03-23T17:00:51.590Z,15.50
2023-03-23T17:03:22.481Z,15.40
2023-03-23T17:05:53.814Z,15.40
2023-03-23T17:08:23.232Z,15.30
2023-03-23T17:10:53.918Z,15.10
2023-03-23T17:13:23.416Z,15.10
2023-03-23T17:15:55.874Z,15.10
2023-03-23T17:18:25.604Z,15.00
2023-03-23T17:20:55.939Z,15.00
2023-03-23T17:23:25.905Z,15.20
2023-03-23T17:25:57.005Z,15.30
2023-03-23T17:28:26.738Z,15.30
2023-03-23T17:30:56.108Z,15.30
2023-03-23T17:33:26.402Z,15.40
2023-03-23T17:35:55.955Z,15.40
2023-03-23T17:38:25.344Z,15.40
2023-03-23T17:41:00.731Z,15.40
2023-03-23T17:43:30.456Z,15.40
2023-03-23T17:46:00.394Z,15.40
2023-03-23T17:48:29.872Z,15.40
2023-03-23T17:51:00.133Z,15.40
2023-03-23T17:53:30.504Z,15.50
2023-03-23T17:56:02.174Z,15.50
2023-03-23T17:58:31.761Z,15.40
2023-03-23T18:01:01.625Z,15.40
2023-03-23T18:04:09.696Z,15.40
2023-03-23T18:06:46.031Z,15.30
2023-03-23T18:09:15.999Z,15.30
2023-03-23T18:11:47.181Z,15.20
2023-03-23T18:14:16.505Z,15.20
2023-03-23T18:16:46.393Z,15.20
2023-03-23T18:19:16.138Z,15.10
2023-03-23T18:21:47.241Z,15.10
2023-03-23T18:24:16.793Z,15.00
2023-03-23T18:26:47.890Z,15.10
2023-03-23T18:29:17.582Z,15.00
2023-03-23T18:31:50.288Z,15.00
2023-03-23T18:34:20.569Z,15.00
2023-03-23T18:36:53.162Z,14.90
2023-03-23T18:39:49.405Z,14.80
2023-03-23T18:42:21.893Z,14.80
2023-03-23T18:44:52.877Z,14.80
2023-03-23T18:47:24.400Z,14.80
2023-03-23T18:49:56.990Z,14.70
2023-03-23T18:52:33.742Z,14.70
2023-03-23T18:55:06.624Z,14.70
2023-03-23T18:57:37.859Z,14.60
2023-03-23T19:00:09.314Z,14.60
2023-03-23T19:02:39.959Z,14.60
2023-03-23T19:05:12.632Z,14.60
2023-03-23T19:07:43.969Z,14.50
2023-03-23T19:10:13.887Z,14.50
2023-03-23T19:12:46.508Z,14.40
2023-03-23T19:15:18.399Z,14.40
2023-03-23T19:17:48.207Z,14.30
2023-03-23T19:20:37.197Z,14.30
2023-03-23T19:23:07.236Z,14.30
2023-03-23T19:25:36.406Z,14.30
2023-03-23T19:30:45.072Z,14.20
2023-03-23T19:33:14.196Z,14.20
2023-03-23T19:35:44.538Z,14.20
2023-03-23T19:38:14.153Z,14.10
2023-03-23T19:40:43.925Z,14.10
2023-03-23T19:43:15.610Z,14.10
2023-03-23T19:45:48.075Z,14.10
2023-03-23T19:48:18.277Z,14.10
2023-03-23T19:50:51.381Z,14.00
2023-03-23T19:53:23.074Z,14.10
2023-03-23T19:55:53.341Z,14.00
2023-03-23T19:58:29.426Z,14.00
2023-03-23T20:00:58.955Z,14.40
2023-03-23T20:03:28.759Z,13.90
2023-03-23T20:06:02.210Z,13.90
2023-03-23T20:08:32.680Z,13.90
2023-03-23T20:11:07.063Z,13.90
2023-03-23T20:13:39.531Z,13.80
2023-03-23T20:16:10.730Z,13.80
2023-03-23T20:18:41.415Z,13.70
2023-03-23T20:21:13.227Z,13.70
2023-03-23T20:23:45.483Z,13.60
2023-03-23T20:26:18.103Z,13.60
2023-03-23T20:28:49.433Z,13.60
2023-03-23T20:31:41.039Z,13.60
2023-03-23T20:34:13.665Z,13.60
2023-03-23T20:36:45.530Z,13.50
2023-03-23T20:39:19.421Z,13.50
2023-03-23T20:41:51.152Z,13.50
2023-03-23T20:44:25.446Z,13.50
2023-03-23T20:46:58.723Z,13.40
2023-03-23T20:49:28.648Z,13.40
2023-03-23T20:51:58.771Z,13.40
2023-03-23T20:54:28.630Z,13.30
2023-03-23T20:56:59.369Z,13.30
2023-03-23T20:59:30.773Z,13.30
2023-03-23T21:02:00.684Z,13.30
2023-03-23T21:04:30.667Z,13.30
2023-03-23T21:07:01.253Z,13.30
2023-03-23T21:09:31.778Z,13.20
2023-03-23T21:12:01.012Z,13.30
2023-03-23T21:14:32.279Z,13.30
2023-03-23T21:17:02.279Z,13.20
2023-03-23T21:19:32.458Z,13.20
2023-03-23T21:22:04.934Z,13.10
2023-03-23T21:24:37.873Z,13.10
2023-03-23T21:27:07.234Z,13.00
2023-03-23T21:29:39.056Z,12.90
2023-03-23T21:32:09.059Z,12.80
2023-03-23T21:34:39.104Z,12.80
2023-03-23T21:37:10.094Z,12.70
2023-03-23T21:39:39.933Z,12.50
2023-03-23T21:42:08.757Z,12.30
2023-03-23T21:44:40.491Z,12.20
2023-03-23T21:47:11.510Z,12.10
2023-03-23T21:49:41.455Z,12.10
2023-03-23T21:52:11.196Z,12.00
2023-03-23T21:54:41.641Z,12.00
2023-03-23T21:57:12.292Z,12.00
2023-03-23T21:59:43.587Z,11.90
2023-03-23T22:02:14.269Z,12.00
2023-03-23T22:04:43.995Z,11.80
2023-03-23T22:07:16.491Z,11.60
2023-03-23T22:09:46.324Z,11.60
2023-03-23T22:12:16.718Z,11.00
2023-03-23T22:14:47.977Z,11.80
2023-03-23T22:17:16.956Z,11.90
2023-03-23T22:19:46.301Z,12.00
2023-03-23T22:22:15.681Z,12.00
2023-03-23T22:24:44.719Z,12.00
2023-03-23T22:27:14.012Z,12.00
2023-03-23T22:29:43.568Z,12.00
2023-03-23T22:32:13.967Z,11.90
2023-03-23T22:34:43.237Z,11.80
2023-03-23T22:37:12.110Z,11.80
2023-03-23T22:39:40.899Z,11.90
2023-03-23T22:42:10.688Z,11.90
2023-03-23T22:44:41.707Z,11.90
2023-03-23T22:47:10.720Z,11.80
2023-03-23T22:49:41.200Z,11.60
2023-03-23T22:52:10.744Z,11.50
2023-03-23T22:54:40.627Z,11.20
2023-03-23T22:57:09.647Z,11.10
2023-03-23T22:59:39.220Z,11.10
2023-03-23T23:02:11.250Z,11.00
2023-03-23T23:04:41.654Z,10.80
2023-03-23T23:07:14.857Z,10.70
2023-03-23T23:09:44.659Z,10.90
2023-03-23T23:12:15.747Z,11.00
2023-03-23T23:14:46.843Z,11.10
2023-03-23T23:17:16.080Z,11.20
2023-03-23T23:19:47.337Z,11.20
2023-03-23T23:22:19.280Z,11.30
2023-03-23T23:24:48.875Z,11.30
2023-03-23T23:27:18.635Z,11.40
2023-03-23T23:29:48.086Z,11.40
2023-03-23T23:32:17.284Z,11.40
2023-03-23T23:34:48.699Z,11.50
2023-03-23T23:37:17.617Z,11.50
2023-03-23T23:39:47.393Z,11.50
2023-03-23T23:42:16.673Z,11.70
2023-03-23T23:44:46.974Z,11.80
2023-03-23T23:47:16.300Z,11.80
2023-03-23T23:49:46.917Z,11.80
2023-03-23T23:52:16.186Z,11.80
2023-03-23T23:54:47.517Z,11.90
2023-03-23T23:57:17.438Z,11.90
2023-03-23T23:59:46.567Z,11.90
